Time;durP1;ratioP1;P1;durP2;ratioP2;P2;SDS_P1;SDS_P2;PMS_P1;PMS_P2;Temp;Humidity;BMP_temperature;BMP_pressure;BME280_temperature;BME280_humidity;BME280_pressure;Samples;Min_cycle;Max_cycle;Signal;HPM_P1;HPM_P2
2022/09/09 00:01:42;;;;;;;20.63;8.95;;;;;;;11.87;100.00;100336.09;5006678;28;20061;-77
2022/09/09 00:04:30;;;;;;;15.98;8.30;;;;;;;11.81;100.00;100332.31;5005176;28;20034;-76
2022/09/09 00:07:24;;;;;;;18.08;7.63;;;;;;;11.75;100.00;100335.78;5006429;28;20038;-76
2022/09/09 00:10:09;;;;;;;18.77;7.43;;;;;;;11.53;100.00;100329.56;5008503;28;20120;-77
2022/09/09 00:13:00;;;;;;;18.80;8.73;;;;;;;11.32;100.00;100321.47;4994389;28;20025;-78
2022/09/09 00:15:35;;;;;;;18.83;7.38;;;;;;;11.22;100.00;100316.44;5000905;28;20041;-76
2022/09/09 00:18:01;;;;;;;16.73;7.22;;;;;;;11.05;100.00;100318.50;4990397;28;20022;-76
2022/09/09 00:20:26;;;;;;;22.67;7.93;;;;;;;11.05;100.00;100320.38;5004122;28;20096;-76
2022/09/09 00:23:19;;;;;;;19.10;8.18;;;;;;;11.02;100.00;100320.75;5006665;28;20103;-76
2022/09/09 00:26:08;;;;;;;17.02;7.32;;;;;;;10.94;100.00;100325.19;5018996;28;20121;-77
2022/09/09 00:28:39;;;;;;;17.85;7.47;;;;;;;10.69;100.00;100310.41;4986542;28;20038;-77
2022/09/09 00:31:15;;;;;;;16.45;7.65;;;;;;;10.73;100.00;100304.47;5006852;28;20029;-76
2022/09/09 00:33:42;;;;;;;12.43;6.88;;;;;;;10.93;100.00;100320.88;4999671;28;20106;-78
2022/09/09 00:36:18;;;;;;;20.42;8.20;;;;;;;10.96;100.00;100320.47;5006912;28;20034;-76
2022/09/09 00:38:51;;;;;;;16.67;7.93;;;;;;;10.85;100.00;100325.50;5002306;28;20026;-77
2022/09/09 00:41:22;;;;;;;20.45;7.60;;;;;;;10.70;100.00;100326.34;4991063;28;20532;-77
2022/09/09 00:44:28;;;;;;;16.73;7.50;;;;;;;10.76;100.00;100324.78;4986642;28;20042;-77
2022/09/09 00:47:18;;;;;;;15.98;7.32;;;;;;;10.69;100.00;100329.22;4979331;28;20046;-76
2022/09/09 00:50:24;;;;;;;15.32;6.72;;;;;;;10.55;100.00;100331.72;5001493;28;20037;-77
2022/09/09 00:53:24;;;;;;;15.00;6.10;;;;;;;10.31;100.00;100322.09;4976987;28;20036;-77
2022/09/09 00:55:56;;;;;;;14.98;6.93;;;;;;;10.39;100.00;100333.78;4991494;28;20480;-78
2022/09/09 00:58:22;;;;;;;22.08;6.90;;;;;;;10.49;100.00;100335.19;5007872;28;20038;-77
2022/09/09 01:00:53;;;;;;;26.40;8.02;;;;;;;10.56;100.00;100314.59;4973359;28;20041;-77
2022/09/09 01:03:35;;;;;;;26.08;7.88;;;;;;;10.76;100.00;100335.53;4992313;28;20125;-77
2022/09/09 01:06:16;;;;;;;28.02;7.65;;;;;;;10.60;100.00;100315.06;5005173;28;20029;-77
2022/09/09 01:08:54;;;;;;;17.20;7.28;;;;;;;10.75;100.00;100333.88;5000431;28;20054;-76
2022/09/09 01:11:26;;;;;;;21.00;8.07;;;;;;;10.83;100.00;100335.63;4985531;28;20029;-76
2022/09/09 01:14:11;;;;;;;18.58;6.82;;;;;;;10.92;100.00;100343.38;4989855;28;20470;-76
2022/09/09 01:16:38;;;;;;;14.65;6.80;;;;;;;11.00;100.00;100345.97;4988953;28;20042;-76
2022/09/09 01:19:07;;;;;;;16.40;6.63;;;;;;;10.91;100.00;100336.34;5004948;28;20494;-76
2022/09/09 01:21:44;;;;;;;18.33;7.85;;;;;;;10.84;100.00;100335.44;4970844;28;20057;-77
2022/09/09 01:24:25;;;;;;;21.27;7.22;;;;;;;10.77;100.00;100329.16;5009480;28;20034;-77
2022/09/09 01:26:53;;;;;;;18.15;7.05;;;;;;;10.74;100.00;100330.34;4989367;28;20032;-76
2022/09/09 01:29:21;;;;;;;19.25;6.95;;;;;;;10.68;100.00;100333.78;4973949;28;20033;-76
2022/09/09 01:31:57;;;;;;;18.63;6.75;;;;;;;10.64;100.00;100327.13;5000275;28;20053;-76
2022/09/09 01:34:25;;;;;;;16.60;6.80;;;;;;;10.66;100.00;100324.22;5006369;28;20034;-77
2022/09/09 01:36:59;;;;;;;19.02;7.57;;;;;;;10.68;100.00;100330.25;4990534;28;20034;-76
2022/09/09 01:40:03;;;;;;;17.20;7.28;;;;;;;10.85;100.00;100337.09;4984524;28;20060;-76
2022/09/09 01:42:29;;;;;;;16.75;6.40;;;;;;;11.07;100.00;100334.47;4993444;28;20042;-76
2022/09/09 01:44:55;;;;;;;25.52;8.18;;;;;;;11.20;100.00;100326.53;4988359;28;20392;-77
2022/09/09 01:47:20;;;;;;;21.35;7.50;;;;;;;11.30;100.00;100332.44;5007950;28;20460;-78
2022/09/09 01:49:46;;;;;;;18.25;8.00;;;;;;;11.43;100.00;100332.59;5005236;28;20049;-76
2022/09/09 01:52:12;;;;;;;15.60;8.05;;;;;;;11.47;100.00;100324.94;4989628;28;20073;-78
2022/09/09 01:54:37;;;;;;;16.35;6.88;;;;;;;11.51;100.00;100320.00;4996425;28;20030;-78
2022/09/09 01:57:23;;;;;;;18.17;7.72;;;;;;;11.64;100.00;100338.97;4973523;28;21772;-78
2022/09/09 02:00:10;;;;;;;18.30;7.28;;;;;;;11.71;100.00;100342.56;5011602;28;20121;-76
2022/09/09 02:02:49;;;;;;;22.60;7.72;;;;;;;11.60;100.00;100319.69;5005747;28;20034;-76
2022/09/09 02:05:21;;;;;;;21.00;8.23;;;;;;;11.69;100.00;100341.91;4989614;28;20121;-76
2022/09/09 02:07:52;;;;;;;17.58;7.32;;;;;;;11.79;100.00;100353.22;4988142;28;20038;-78
2022/09/09 02:10:25;;;;;;;24.75;8.27;;;;;;;11.77;100.00;100343.66;4986199;28;20038;-76
2022/09/09 02:12:56;;;;;;;15.68;8.23;;;;;;;11.82;100.00;100349.28;4975213;28;20030;-76
2022/09/09 02:15:46;;;;;;;17.60;7.85;;;;;;;11.83;100.00;100362.59;4991840;28;20030;-77
2022/09/09 02:18:14;;;;;;;20.15;7.75;;;;;;;11.81;100.00;100359.25;5007521;28;20081;-76
2022/09/09 02:20:39;;;;;;;16.95;7.75;;;;;;;11.84;100.00;100363.41;4972038;28;20129;-77
2022/09/09 02:23:08;;;;;;;22.73;7.47;;;;;;;11.87;100.00;100361.19;4978050;28;20133;-76
2022/09/09 02:25:36;;;;;;;20.48;8.40;;;;;;;11.79;100.00;100347.81;4987793;28;20034;-76
2022/09/09 02:28:03;;;;;;;16.60;8.15;;;;;;;11.85;100.00;100359.69;5008347;28;20018;-77
2022/09/09 02:30:30;;;;;;;20.80;7.97;;;;;;;11.74;100.00;100341.34;4971636;28;20052;-77
2022/09/09 02:32:57;;;;;;;18.15;7.18;;;;;;;11.75;100.00;100354.63;4991919;28;20030;-76
2022/09/09 02:35:27;;;;;;;15.52;7.05;;;;;;;11.71;100.00;100355.22;4972048;28;20045;-76
2022/09/09 02:37:55;;;;;;;19.65;8.65;;;;;;;11.61;100.00;100352.81;4992951;28;20495;-77
2022/09/09 02:40:21;;;;;;;19.90;7.45;;;;;;;11.49;100.00;100339.06;5009249;28;20045;-77
2022/09/09 02:42:48;;;;;;;21.88;8.23;;;;;;;11.51;100.00;100349.63;5003016;28;20030;-77
2022/09/09 02:45:16;;;;;;;20.77;7.50;;;;;;;11.50;100.00;100350.66;5007306;28;20034;-76
2022/09/09 02:48:04;;;;;;;22.58;8.13;;;;;;;11.49;100.00;100355.22;5009579;28;20033;-76
2022/09/09 02:50:35;;;;;;;21.10;8.07;;;;;;;11.44;100.00;100358.47;4987486;28;20041;-76
2022/09/09 02:53:19;;;;;;;23.58;7.55;;;;;;;11.35;100.00;100353.38;4990514;28;20091;-76
2022/09/09 02:55:55;;;;;;;18.85;6.93;;;;;;;11.23;100.00;100356.59;4982676;28;20041;-77
2022/09/09 02:58:20;;;;;;;17.05;7.53;;;;;;;11.21;100.00;100364.00;4993538;28;20037;-78
2022/09/09 03:00:48;;;;;;;19.52;8.07;;;;;;;11.19;100.00;100366.09;5002847;28;20134;-78
2022/09/09 03:03:15;;;;;;;17.38;6.95;;;;;;;11.17;100.00;100360.03;4991604;28;20042;-77
2022/09/09 03:05:42;;;;;;;21.98;7.45;;;;;;;11.13;100.00;100358.75;5011521;28;20079;-76
2022/09/09 03:08:27;;;;;;;17.30;7.80;;;;;;;11.10;100.00;100356.44;5012228;28;20065;-76
2022/09/09 03:10:58;;;;;;;22.95;7.25;;;;;;;11.18;100.00;100358.19;4984678;28;20034;-78
2022/09/09 03:13:25;;;;;;;31.05;8.27;;;;;;;11.13;100.00;100353.34;4976660;28;20022;-77
2022/09/09 03:15:51;;;;;;;17.08;7.95;;;;;;;11.10;100.00;100356.44;5009691;28;20037;-76
2022/09/09 03:18:17;;;;;;;21.42;7.93;;;;;;;10.94;100.00;100352.09;5008891;28;20091;-77
2022/09/09 03:20:43;;;;;;;16.60;7.65;;;;;;;10.90;100.00;100366.09;4987242;28;20042;-77
2022/09/09 03:23:08;;;;;;;20.17;7.85;;;;;;;10.82;100.00;100368.91;5000769;28;20041;-77
2022/09/09 03:25:35;;;;;;;18.30;7.97;;;;;;;10.75;100.00;100355.38;4995795;28;20030;-76
2022/09/09 03:28:01;;;;;;;19.90;8.27;;;;;;;10.78;100.00;100365.75;5007440;28;20116;-77
2022/09/09 03:30:27;;;;;;;14.43;7.75;;;;;;;10.69;100.00;100366.88;4994716;28;20480;-77
2022/09/09 03:32:54;;;;;;;18.40;8.00;;;;;;;10.60;100.00;100365.31;4992859;28;20452;-76
2022/09/09 03:35:20;;;;;;;17.05;7.10;;;;;;;10.56;100.00;100376.44;5011522;28;20030;-76
2022/09/09 03:37:45;;;;;;;18.05;7.28;;;;;;;10.50;100.00;100377.16;4996385;28;20033;-77
2022/09/09 03:40:11;;;;;;;21.52;7.72;;;;;;;10.41;100.00;100355.94;5009784;28;20034;-77
2022/09/09 03:42:38;;;;;;;19.67;7.30;;;;;;;10.50;100.00;100370.94;5011726;28;20068;-78
2022/09/09 03:45:05;;;;;;;20.42;7.68;;;;;;;10.48;100.00;100373.84;5010506;28;20472;-77
2022/09/09 03:47:31;;;;;;;19.60;7.88;;;;;;;10.53;100.00;100378.63;4995363;28;20033;-77
2022/09/09 03:49:56;;;;;;;17.73;6.93;;;;;;;10.48;100.00;100365.78;4976553;28;20096;-76
2022/09/09 03:52:24;;;;;;;16.90;8.50;;;;;;;10.50;100.00;100371.78;5010118;28;20026;-77
2022/09/09 03:54:51;;;;;;;18.55;8.57;;;;;;;10.39;100.00;100366.88;5009469;28;20036;-77
2022/09/09 03:57:16;;;;;;;16.88;6.78;;;;;;;10.47;100.00;100374.84;5000646;28;20041;-77
2022/09/09 03:59:43;;;;;;;18.27;8.52;;;;;;;10.54;100.00;100367.72;5012858;28;20033;-77
2022/09/09 04:02:08;;;;;;;19.45;8.13;;;;;;;10.49;100.00;100364.75;4977810;28;20050;-77
2022/09/09 04:04:34;;;;;;;22.02;8.23;;;;;;;10.56;100.00;100376.44;4978126;28;20099;-76
2022/09/09 04:07:00;;;;;;;17.73;8.32;;;;;;;10.64;100.00;100382.72;4993766;28;20137;-77
2022/09/09 04:09:26;;;;;;;21.27;8.30;;;;;;;10.65;100.00;100379.84;4976319;28;20066;-77
2022/09/09 04:11:52;;;;;;;25.10;8.55;;;;;;;10.69;100.00;100383.84;5007970;28;20041;-76
2022/09/09 04:14:19;;;;;;;18.73;8.00;;;;;;;10.69;100.00;100383.84;5006655;28;20069;-77
2022/09/09 04:16:45;;;;;;;18.38;7.90;;;;;;;10.70;100.00;100384.69;4974049;28;20036;-76
2022/09/09 04:19:14;;;;;;;17.95;7.28;;;;;;;10.73;100.00;100376.25;4974180;28;20049;-78
2022/09/09 04:21:41;;;;;;;25.40;8.57;;;;;;;10.75;100.00;100384.97;4994970;28;20129;-77
2022/09/09 04:24:08;;;;;;;20.63;7.65;;;;;;;10.69;100.00;100365.03;4973572;28;20030;-78
2022/09/09 04:26:34;;;;;;;18.23;7.38;;;;;;;10.89;100.00;100383.28;5007466;28;20088;-76
2022/09/09 04:29:00;;;;;;;23.65;9.10;;;;;;;10.87;100.00;100379.94;4989107;28;20034;-78
2022/09/09 04:31:26;;;;;;;20.95;7.68;;;;;;;10.90;100.00;100391.19;4978298;28;20038;-77
2022/09/09 04:33:52;;;;;;;23.65;10.13;;;;;;;10.91;100.00;100378.56;5014066;28;20072;-76
2022/09/09 04:36:19;;;;;;;20.10;8.18;;;;;;;10.93;100.00;100395.34;5010147;28;20030;-77
2022/09/09 04:38:45;;;;;;;21.27;8.15;;;;;;;10.87;100.00;100386.16;4994794;28;20112;-77
2022/09/09 04:41:12;;;;;;;23.63;8.43;;;;;;;10.97;100.00;100396.63;4977605;28;20049;-77
2022/09/09 04:43:39;;;;;;;22.77;8.90;;;;;;;11.01;100.00;100384.47;4988573;28;20171;-77
2022/09/09 04:46:05;;;;;;;19.95;8.20;;;;;;;11.14;100.00;100395.41;4975989;28;20041;-78
2022/09/09 04:48:31;;;;;;;24.38;8.98;;;;;;;11.18;100.00;100379.72;4998212;28;20467;-77
2022/09/09 04:51:09;;;;;;;25.52;9.95;;;;;;;11.23;100.00;100388.06;5007548;28;20045;-77
2022/09/09 04:53:35;;;;;;;23.00;9.32;;;;;;;11.18;100.00;100388.63;4992925;28;20044;-77
2022/09/09 04:56:06;;;;;;;23.13;9.70;;;;;;;11.21;100.00;100385.53;4973443;28;20029;-77
2022/09/09 04:58:32;;;;;;;22.30;9.98;;;;;;;11.22;100.00;100384.53;4994335;28;20471;-77
2022/09/09 05:01:08;;;;;;;25.67;9.13;;;;;;;11.30;100.00;100386.28;4995114;28;20033;-77
2022/09/09 05:03:37;;;;;;;25.20;8.05;;;;;;;11.28;100.00;100384.81;4978902;28;20084;-77
2022/09/09 05:06:10;;;;;;;24.45;9.02;;;;;;;11.29;100.00;100386.47;5000400;28;20034;-77
2022/09/09 05:08:37;;;;;;;27.98;8.40;;;;;;;11.15;100.00;100380.09;4993245;28;20030;-77
2022/09/09 05:11:12;;;;;;;24.58;9.98;;;;;;;11.22;100.00;100381.00;4996384;28;20030;-77
2022/09/09 05:13:38;;;;;;;24.20;7.95;;;;;;;11.16;100.00;100371.81;4976368;28;20037;-77
2022/09/09 05:16:04;;;;;;;22.27;9.18;;;;;;;11.36;100.00;100392.75;4968067;28;20607;-78
2022/09/09 05:18:29;;;;;;;24.67;9.25;;;;;;;11.39;100.00;100390.50;5006947;28;20117;-77
2022/09/09 05:21:00;;;;;;;22.13;8.43;;;;;;;11.38;100.00;100374.56;4987176;28;20034;-77
2022/09/09 05:23:25;;;;;;;26.20;9.52;;;;;;;11.45;100.00;100387.03;5012661;28;20116;-77
2022/09/09 05:25:57;;;;;;;24.60;9.25;;;;;;;11.56;100.00;100384.88;5006062;28;20125;-77
2022/09/09 05:28:25;;;;;;;16.40;5.95;;;;;;;11.49;100.00;100378.63;4985050;28;20476;-77
2022/09/09 05:31:07;;;;;;;30.40;8.32;;;;;;;11.59;100.00;100384.50;5000266;28;20030;-77
2022/09/09 05:33:34;;;;;;;29.33;9.38;;;;;;;11.57;100.00;100387.41;5001659;28;20061;-77
2022/09/09 05:36:05;;;;;;;25.83;8.40;;;;;;;11.62;100.00;100389.53;4985711;28;20038;-77
2022/09/09 05:38:32;;;;;;;25.25;8.82;;;;;;;11.62;100.00;100394.91;4992202;28;20033;-76
2022/09/09 05:40:59;;;;;;;28.45;10.75;;;;;;;11.63;100.00;100399.25;4971778;28;20640;-77
2022/09/09 05:43:26;;;;;;;26.40;9.52;;;;;;;11.58;100.00;100410.59;5004175;28;20053;-75
2022/09/09 05:46:22;;;;;;;23.50;8.85;;;;;;;11.56;100.00;100398.34;4983998;28;20034;-75
2022/09/09 05:48:52;;;;;;;26.85;8.90;;;;;;;11.47;100.00;100389.56;4971639;28;20044;-76
2022/09/09 05:51:21;;;;;;;22.92;9.05;;;;;;;11.50;100.00;100391.03;4980978;28;20123;-77
2022/09/09 05:53:48;;;;;;;20.67;7.70;;;;;;;11.52;100.00;100397.06;4989623;28;20087;-76
2022/09/09 05:56:22;;;;;;;20.80;7.95;;;;;;;11.51;100.00;100390.88;4988906;28;20493;-75
2022/09/09 05:58:49;;;;;;;25.45;8.43;;;;;;;11.54;100.00;100382.41;5003559;28;20030;-75
2022/09/09 06:01:30;;;;;;;26.35;9.18;;;;;;;11.65;100.00;100402.59;4987174;28;20038;-76
2022/09/09 06:03:56;;;;;;;20.60;8.63;;;;;;;11.48;100.00;100399.28;5001047;28;20034;-75
2022/09/09 06:06:36;;;;;;;29.25;10.07;;;;;;;11.49;100.00;100402.84;4989059;28;20128;-75
2022/09/09 06:09:06;;;;;;;21.08;7.38;;;;;;;11.56;100.00;100409.13;5001129;28;20065;-75
2022/09/09 06:11:35;;;;;;;19.20;8.43;;;;;;;11.33;100.00;100383.22;4993891;28;20033;-77
2022/09/09 06:14:02;;;;;;;14.57;7.63;;;;;;;11.48;100.00;100412.75;5008462;28;20030;-75
2022/09/09 06:16:29;;;;;;;19.50;7.35;;;;;;;11.45;100.00;100416.66;4991552;28;20500;-77
2022/09/09 06:18:56;;;;;;;21.52;7.97;;;;;;;11.52;100.00;100419.44;5006560;28;20510;-76
2022/09/09 06:21:32;;;;;;;20.90;8.00;;;;;;;11.52;100.00;100418.63;4985066;28;20124;-77
2022/09/09 06:23:58;;;;;;;21.40;8.35;;;;;;;11.57;100.00;100421.56;4991456;28;20490;-76
2022/09/09 06:26:30;;;;;;;21.75;8.98;;;;;;;11.64;100.00;100414.38;4990383;28;20025;-80
2022/09/09 06:28:57;;;;;;;23.55;8.23;;;;;;;11.69;100.00;100421.91;5002818;28;20492;-78
2022/09/09 06:31:26;;;;;;;22.73;8.00;;;;;;;11.71;100.00;100409.91;4990501;28;20041;-80
2022/09/09 06:33:54;;;;;;;20.73;7.22;;;;;;;11.74;100.00;100422.97;5003556;28;20033;-79
2022/09/09 06:36:26;;;;;;;25.70;8.23;;;;;;;11.86;100.00;100432.25;4993734;28;20125;-79
2022/09/09 06:38:52;;;;;;;20.15;7.97;;;;;;;11.81;100.00;100431.16;5008573;28;20049;-79
2022/09/09 06:41:19;;;;;;;25.55;9.23;;;;;;;11.75;100.00;100440.81;5011060;28;20396;-78
2022/09/09 06:43:46;;;;;;;18.98;8.18;;;;;;;11.72;100.00;100430.41;4990513;28;20034;-78
2022/09/09 06:46:16;;;;;;;20.70;7.95;;;;;;;11.77;100.00;100443.31;4992995;28;20026;-79
2022/09/09 06:48:44;;;;;;;20.40;8.02;;;;;;;11.94;100.00;100450.16;5004011;28;20038;-79
2022/09/09 06:51:17;;;;;;;16.70;7.22;;;;;;;12.00;100.00;100429.69;4971230;28;20125;-78
2022/09/09 06:53:45;;;;;;;18.13;6.53;;;;;;;12.34;100.00;100457.78;5002930;28;20057;-79
2022/09/09 06:56:10;;;;;;;21.73;7.50;;;;;;;12.42;100.00;100463.84;4985809;28;20034;-78
2022/09/09 06:58:42;;;;;;;22.45;7.70;;;;;;;12.42;100.00;100454.94;5008678;28;20549;-78
2022/09/09 07:01:09;;;;;;;20.92;8.20;;;;;;;12.50;100.00;100450.22;4992788;28;20132;-79
2022/09/09 07:03:35;;;;;;;21.40;7.60;;;;;;;12.45;100.00;100446.47;4993161;28;20029;-78
2022/09/09 07:06:01;;;;;;;18.42;7.18;;;;;;;12.52;100.00;100452.75;4990252;28;20096;-79
2022/09/09 07:08:28;;;;;;;17.58;8.10;;;;;;;12.64;100.00;100458.41;4988152;28;20037;-77
2022/09/09 07:10:53;;;;;;;15.02;7.85;;;;;;;12.74;100.00;100448.13;5009880;28;20037;-77
2022/09/09 07:13:25;;;;;;;15.85;8.10;;;;;;;12.91;100.00;100456.72;5011061;28;20091;-78
2022/09/09 07:15:51;;;;;;;24.55;8.18;;;;;;;13.04;100.00;100456.78;5005405;28;20380;-78
2022/09/09 07:18:24;;;;;;;19.38;8.32;;;;;;;13.16;100.00;100455.22;4999757;28;20041;-78
2022/09/09 07:20:54;;;;;;;;;;;;;;;13.29;100.00;100459.88;4992807;28;20054;-77
2022/09/09 07:23:20;;;;;;;14.40;5.35;;;;;;;13.41;100.00;100452.84;5009805;28;19979;-76
2022/09/09 07:25:47;;;;;;;23.38;8.13;;;;;;;13.75;100.00;100463.78;4992107;28;20038;-78
2022/09/09 07:28:13;;;;;;;23.85;8.07;;;;;;;14.25;100.00;100464.28;5009905;28;20044;-78
2022/09/09 07:30:40;;;;;;;18.23;7.75;;;;;;;14.44;100.00;100454.50;4989292;28;20121;-77
2022/09/09 07:33:06;;;;;;;19.25;7.65;;;;;;;15.01;100.00;100453.00;5002513;28;20104;-78
2022/09/09 07:35:32;;;;;;;14.73;7.40;;;;;;;15.36;100.00;100468.91;5008706;28;20038;-75
2022/09/09 07:37:58;;;;;;;15.75;5.95;;;;;;;15.69;100.00;100473.38;4975950;28;20052;-76
2022/09/09 07:40:24;;;;;;;17.60;7.43;;;;;;;16.25;100.00;100473.44;4992288;28;20029;-78
2022/09/09 07:42:50;;;;;;;18.48;6.50;;;;;;;16.72;100.00;100473.03;5025013;28;20104;-75
2022/09/09 07:45:16;;;;;;;18.23;6.32;;;;;;;16.12;100.00;100484.41;5007240;28;20076;-77
2022/09/09 07:47:44;;;;;;;14.27;6.35;;;;;;;15.40;100.00;100489.13;4993795;28;20073;-76
2022/09/09 07:50:10;;;;;;;14.75;6.90;;;;;;;14.94;100.00;100471.13;4989982;28;20119;-77
2022/09/09 07:52:41;;;;;;;12.18;5.75;;;;;;;15.01;100.00;100487.38;4993576;28;20070;-77
2022/09/09 07:55:07;;;;;;;15.55;6.30;;;;;;;14.83;100.00;100485.31;4977933;28;20040;-76
2022/09/09 07:57:33;;;;;;;13.18;6.60;;;;;;;14.71;100.00;100495.91;5003959;28;20030;-77
2022/09/09 07:59:58;;;;;;;12.25;6.75;;;;;;;14.72;100.00;100497.59;4993810;28;20488;-76
2022/09/09 08:02:25;;;;;;;16.55;7.00;;;;;;;14.84;100.00;100501.31;5009398;28;20068;-76
2022/09/09 08:04:51;;;;;;;18.02;6.72;;;;;;;14.92;100.00;100502.97;4991990;28;20092;-78
2022/09/09 08:07:17;;;;;;;16.65;7.20;;;;;;;14.93;100.00;100510.91;5008143;28;20038;-77
2022/09/09 08:09:43;;;;;;;12.45;5.75;;;;;;;14.90;100.00;100514.03;4990586;28;20030;-83
2022/09/09 08:12:10;;;;;;;14.00;6.38;;;;;;;14.82;100.00;100511.53;4999908;28;20037;-75
2022/09/09 08:14:36;;;;;;;19.10;7.63;;;;;;;14.93;100.00;100516.31;5002696;28;20512;-83
2022/09/09 08:17:02;;;;;;;11.20;6.07;;;;;;;15.10;100.00;100522.09;4975025;28;20038;-82
2022/09/09 08:19:33;;;;;;;19.23;8.05;;;;;;;15.14;100.00;100523.38;4996008;28;20046;-85
2022/09/09 08:22:01;;;;;;;16.13;7.75;;;;;;;15.23;100.00;100526.66;5007811;28;20033;-83
2022/09/09 08:24:27;;;;;;;14.85;7.05;;;;;;;15.13;100.00;100516.25;4973157;28;20053;-84
2022/09/09 08:26:53;;;;;;;16.15;7.22;;;;;;;15.16;100.00;100525.84;4993653;28;20045;-83
2022/09/09 08:29:19;;;;;;;11.57;6.15;;;;;;;15.17;100.00;100527.53;5009239;28;20049;-84
2022/09/09 08:31:54;;;;;;;17.00;7.07;;;;;;;15.21;100.00;100528.75;4991815;28;20084;-85
2022/09/09 08:34:21;;;;;;;15.43;6.85;;;;;;;15.30;100.00;100540.22;4993046;28;20033;-83
2022/09/09 08:36:48;;;;;;;12.48;6.63;;;;;;;15.37;100.00;100541.00;4992930;28;20033;-78
2022/09/09 08:39:16;;;;;;;17.45;6.50;;;;;;;15.63;100.00;100548.22;4987119;28;20510;-78
2022/09/09 08:42:04;;;;;;;21.27;7.55;;;;;;;15.76;100.00;100550.09;4993075;28;20030;-87
2022/09/09 08:45:08;;;;;;;16.23;7.40;;;;;;;15.70;100.00;100559.91;5026066;28;20088;-88
2022/09/09 08:47:52;;;;;;;12.73;6.55;;;;;;;15.57;100.00;100555.34;5003331;28;20045;-86
2022/09/09 08:50:29;;;;;;;15.77;6.95;;;;;;;15.60;100.00;100551.38;5024699;28;20472;-86
2022/09/09 08:53:10;;;;;;;10.88;6.13;;;;;;;15.83;100.00;100562.56;4993506;28;20030;-85
2022/09/09 08:55:48;;;;;;;10.27;5.57;;;;;;;15.89;100.00;100546.50;4968177;28;20412;-85
2022/09/09 08:58:29;;;;;;;17.17;6.60;;;;;;;16.03;100.00;100564.34;5022904;28;20042;-88
2022/09/09 09:01:09;;;;;;;14.90;5.63;;;;;;;15.94;100.00;100555.63;5005951;28;20083;-88
2022/09/09 09:03:52;;;;;;;15.02;7.20;;;;;;;15.96;100.00;100560.84;5008672;28;20546;-86
2022/09/09 09:06:36;;;;;;;14.13;5.85;;;;;;;16.08;100.00;100556.38;5011148;28;20033;-86
2022/09/09 09:09:30;;;;;;;12.40;6.32;;;;;;;16.32;100.00;100543.94;5020772;28;20038;-86
2022/09/09 09:12:00;;;;;;;15.25;6.75;;;;;;;16.85;100.00;100557.13;4962151;28;20083;-87
2022/09/09 09:14:30;;;;;;;15.23;6.53;;;;;;;17.40;100.00;100570.00;4979309;28;20034;-87
2022/09/09 09:16:58;;;;;;;13.20;6.03;;;;;;;17.91;100.00;100571.50;4987006;28;20087;-86
2022/09/09 09:19:26;;;;;;;13.63;6.25;;;;;;;18.25;100.00;100574.63;5006989;28;20037;-87
2022/09/09 09:21:58;;;;;;;15.27;6.65;;;;;;;18.54;100.00;100580.28;4990178;28;20040;-88
2022/09/09 09:24:39;;;;;;;14.85;4.45;;;;;;;18.50;100.00;100584.50;4987821;28;20334;-85
2022/09/09 09:27:14;;;;;;;11.32;4.70;;;;;;;18.41;100.00;100578.56;5009789;28;20103;-86
2022/09/09 09:29:42;;;;;;;11.13;5.47;;;;;;;18.25;100.00;100582.78;5005151;28;20546;-84
2022/09/09 09:32:14;;;;;;;13.05;6.32;;;;;;;18.60;100.00;100582.06;5004312;28;20113;-82
2022/09/09 09:34:40;;;;;;;11.75;4.32;;;;;;;19.16;100.00;100588.09;4986463;28;20036;-82
2022/09/09 09:37:19;;;;;;;11.07;4.95;;;;;;;19.58;100.00;100599.66;5003159;28;20038;-82
2022/09/09 09:39:45;;;;;;;7.10;4.35;;;;;;;20.39;100.00;100597.81;5004015;28;20128;-83
2022/09/09 09:42:17;;;;;;;17.65;5.82;;;;;;;20.11;100.00;100595.91;5001683;28;20112;-83
2022/09/09 09:44:42;;;;;;;10.43;4.40;;;;;;;19.40;100.00;100605.28;5005361;28;20279;-83
2022/09/09 09:47:20;;;;;;;9.88;5.05;;;;;;;19.25;100.00;100617.47;5008049;28;20033;-85
2022/09/09 09:49:59;;;;;;;10.50;4.60;;;;;;;19.20;100.00;100617.34;4988528;28;20096;-83
2022/09/09 09:52:28;;;;;;;12.07;4.68;;;;;;;19.30;100.00;100616.78;5006626;28;20550;-85
2022/09/09 09:54:55;;;;;;;12.60;4.75;;;;;;;19.92;100.00;100611.63;5007353;28;20339;-84
2022/09/09 09:57:29;;;;;;;8.63;3.78;;;;;;;21.00;100.00;100614.47;4991715;28;20061;-83
2022/09/09 10:00:08;;;;;;;11.35;4.68;;;;;;;20.60;100.00;100623.63;5001745;28;20064;-83
2022/09/09 10:02:39;;;;;;;10.60;4.75;;;;;;;19.70;100.00;100611.44;5011387;28;20053;-83
2022/09/09 10:05:06;;;;;;;10.13;4.93;;;;;;;19.19;100.00;100625.78;4977574;28;20116;-81
2022/09/09 10:07:33;;;;;;;8.57;4.63;;;;;;;18.79;100.00;100616.38;5004723;28;20034;-84
2022/09/09 10:09:58;;;;;;;13.48;5.00;;;;;;;18.78;100.00;100624.75;4994426;28;20233;-84
2022/09/09 10:12:50;;;;;;;10.75;4.90;;;;;;;18.73;100.00;100619.97;4994104;28;20273;-84
2022/09/09 10:15:25;;;;;;;11.87;4.70;;;;;;;18.66;100.00;100622.81;4979029;28;20113;-84
2022/09/09 10:18:15;;;;;;;8.85;4.70;;;;;;;18.73;100.00;100633.59;4977136;28;20037;-84
2022/09/09 10:21:00;;;;;;;14.57;4.78;;;;;;;18.83;100.00;100617.53;5002791;28;20038;-85
2022/09/09 10:23:52;;;;;;;6.50;3.70;;;;;;;19.89;100.00;100633.09;4970579;28;20469;-84
2022/09/09 10:26:18;;;;;;;5.95;3.03;;;;;;;21.07;94.86;100645.19;4993161;28;20044;-84
2022/09/09 10:28:58;;;;;;;8.23;3.80;;;;;;;21.37;92.50;100648.66;5014291;28;20472;-84
2022/09/09 10:31:45;;;;;;;4.90;3.47;;;;;;;22.04;88.80;100654.00;4987592;28;20033;-85
2022/09/09 10:34:20;;;;;;;4.70;3.65;;;;;;;22.71;85.09;100647.41;5007995;28;20108;-85
2022/09/09 10:36:49;;;;;;;10.35;4.57;;;;;;;22.49;86.64;100644.72;5000718;28;20030;-85
2022/09/09 10:39:42;;;;;;;6.75;3.60;;;;;;;22.85;88.71;100646.97;5006073;28;20029;-85
2022/09/09 10:42:16;;;;;;;4.53;3.08;;;;;;;22.54;87.01;100658.44;4974967;28;20097;-85
2022/09/09 10:44:46;;;;;;;4.82;3.25;;;;;;;23.03;77.31;100661.16;5006914;28;20468;-85
2022/09/09 10:47:28;;;;;;;4.82;3.33;;;;;;;26.94;69.21;100656.53;4993463;28;20037;-85
2022/09/09 10:50:06;;;;;;;5.35;3.03;;;;;;;28.66;55.47;100662.44;5009875;28;20476;-85
2022/09/09 10:53:05;;;;;;;4.82;2.78;;;;;;;29.84;48.03;100662.38;5023002;28;20038;-86
2022/09/09 10:55:41;;;;;;;5.47;3.38;;;;;;;30.08;52.37;100651.88;4989080;28;20026;-85
2022/09/09 10:58:32;;;;;;;6.53;3.38;;;;;;;31.38;53.04;100662.53;4986303;28;20044;-83
2022/09/09 11:01:07;;;;;;;5.88;2.83;;;;;;;32.30;45.39;100662.72;5006126;28;20042;-84
2022/09/09 11:03:34;;;;;;;8.95;2.65;;;;;;;32.38;38.40;100667.47;5008868;28;20033;-82
2022/09/09 11:06:19;;;;;;;3.83;2.15;;;;;;;30.73;40.09;100674.94;4999903;28;20077;-83
2022/09/09 11:08:45;;;;;;;4.50;2.60;;;;;;;27.88;44.48;100655.41;5000978;28;20108;-82
2022/09/09 11:11:17;;;;;;;5.85;3.30;;;;;;;25.84;49.09;100664.00;4990094;28;20556;-83
2022/09/09 11:13:54;;;;;;;8.38;2.78;;;;;;;24.69;52.77;100665.38;4986762;28;20126;-82
2022/09/09 11:16:43;;;;;;;4.90;3.20;;;;;;;28.56;44.51;100670.06;5005496;28;20037;-84
2022/09/09 11:19:36;;;;;;;6.20;3.17;;;;;;;29.30;40.94;100671.09;4995126;28;20404;-83
2022/09/09 11:22:05;;;;;;;5.30;3.10;;;;;;;31.83;36.70;100676.31;4993738;28;20034;-82
2022/09/09 11:24:37;;;;;;;6.30;2.90;;;;;;;30.29;37.98;100674.50;5011221;28;20048;-83
2022/09/09 11:27:16;;;;;;;6.88;2.70;;;;;;;30.29;37.29;100682.00;4996420;28;20033;-82
2022/09/09 11:30:06;;;;;;;7.53;2.65;;;;;;;28.10;42.01;100679.72;4979474;28;20492;-81
2022/09/09 11:33:03;;;;;;;6.05;2.65;;;;;;;28.84;39.25;100682.88;4978149;28;20029;-81
2022/09/09 11:35:29;;;;;;;5.13;2.63;;;;;;;30.18;36.42;100687.72;5010864;28;20396;-82